createdAt,value
2022-08-31T00:02:26.227Z,3.10
2022-08-31T00:05:34.047Z,2.65
2022-08-31T00:08:36.728Z,2.85
2022-08-31T00:11:42.382Z,2.92
2022-08-31T00:14:45.047Z,2.90
2022-08-31T00:17:48.949Z,2.40
2022-08-31T00:20:55.607Z,3.85
2022-08-31T00:23:59.949Z,2.53
2022-08-31T00:27:04.421Z,2.45
2022-08-31T00:30:09.497Z,2.70
2022-08-31T00:33:13.647Z,2.83
2022-08-31T00:36:23.092Z,3.20
2022-08-31T00:39:37.576Z,2.65
2022-08-31T00:42:56.977Z,2.42
2022-08-31T00:46:00.531Z,2.60
2022-08-31T00:49:19.208Z,2.40
2022-08-31T00:52:29.648Z,2.15
2022-08-31T00:55:37.125Z,2.00
2022-08-31T00:58:45.573Z,1.92
2022-08-31T01:02:01.775Z,1.92
2022-08-31T01:05:05.850Z,1.90
2022-08-31T01:08:11.840Z,1.92
2022-08-31T01:11:20.717Z,2.03
2022-08-31T01:14:25.016Z,2.12
2022-08-31T01:17:30.631Z,1.95
2022-08-31T01:20:51.420Z,1.87
2022-08-31T01:24:01.036Z,2.10
2022-08-31T01:27:07.793Z,2.03
2022-08-31T01:30:21.007Z,1.90
2022-08-31T01:33:23.944Z,1.70
2022-08-31T01:36:32.761Z,1.83
2022-08-31T01:39:35.951Z,1.87
2022-08-31T01:42:42.423Z,2.00
2022-08-31T01:45:47.470Z,1.70
2022-08-31T01:48:53.035Z,1.70
2022-08-31T01:51:56.988Z,1.83
2022-08-31T01:55:01.129Z,1.85
2022-08-31T01:58:05.328Z,1.70
2022-08-31T02:01:33.237Z,1.67
2022-08-31T02:04:29.029Z,1.90
2022-08-31T02:07:31.973Z,1.62
2022-08-31T02:10:35.787Z,1.98
2022-08-31T02:13:41.011Z,1.80
2022-08-31T02:16:44.803Z,1.80
2022-08-31T02:19:51.658Z,2.00
2022-08-31T02:22:57.220Z,2.10
2022-08-31T02:26:00.577Z,1.80
2022-08-31T02:29:03.535Z,1.85
2022-08-31T02:32:08.983Z,2.05
2022-08-31T02:35:24.145Z,1.70
2022-08-31T02:38:32.050Z,1.98
2022-08-31T02:41:39.460Z,1.92
2022-08-31T02:44:44.940Z,1.85
2022-08-31T02:47:48.083Z,1.95
2022-08-31T02:50:53.533Z,1.70
2022-08-31T02:53:56.374Z,2.00
2022-08-31T02:57:02.770Z,1.70
2022-08-31T03:00:07.731Z,1.98
2022-08-31T03:03:18.912Z,1.85
2022-08-31T03:06:23.233Z,1.80
2022-08-31T03:09:27.466Z,2.08
2022-08-31T03:12:32.643Z,2.67
2022-08-31T03:15:38.411Z,2.33
2022-08-31T03:18:45.087Z,2.20
2022-08-31T03:21:48.292Z,1.92
2022-08-31T03:25:05.424Z,2.10
2022-08-31T03:28:08.740Z,2.20
2022-08-31T03:31:14.421Z,1.73
2022-08-31T03:34:17.713Z,1.90
2022-08-31T03:37:24.344Z,1.77
2022-08-31T03:40:30.601Z,2.17
2022-08-31T03:43:34.398Z,2.20
2022-08-31T03:46:38.146Z,1.90
2022-08-31T03:49:41.630Z,2.42
2022-08-31T03:52:46.055Z,2.37
2022-08-31T03:55:49.455Z,2.20
2022-08-31T03:58:53.220Z,2.12
2022-08-31T04:02:00.004Z,2.12
2022-08-31T04:05:19.148Z,2.60
2022-08-31T04:08:34.713Z,2.80
2022-08-31T04:11:45.803Z,2.80
2022-08-31T04:15:09.409Z,2.87
2022-08-31T04:18:27.836Z,2.80
2022-08-31T04:21:31.236Z,3.37
2022-08-31T04:24:38.771Z,2.90
2022-08-31T04:27:42.860Z,2.65
2022-08-31T04:30:45.934Z,3.30
2022-08-31T04:34:00.352Z,3.03
2022-08-31T04:37:05.220Z,3.22
2022-08-31T04:40:19.044Z,3.05
2022-08-31T04:43:23.748Z,2.60
2022-08-31T04:46:28.562Z,3.20
2022-08-31T04:49:32.427Z,2.87
2022-08-31T04:52:38.496Z,2.80
2022-08-31T04:55:44.180Z,2.53
2022-08-31T04:58:51.642Z,3.12
2022-08-31T05:01:56.146Z,2.62
2022-08-31T05:05:03.213Z,3.00
2022-08-31T05:08:20.276Z,2.92
2022-08-31T05:11:48.398Z,3.25
2022-08-31T05:14:52.086Z,3.30
2022-08-31T05:17:55.955Z,4.20
2022-08-31T05:21:14.152Z,4.53
2022-08-31T05:24:40.999Z,3.80
2022-08-31T05:27:53.781Z,3.35
2022-08-31T05:30:58.022Z,3.95
2022-08-31T05:34:03.088Z,3.47
2022-08-31T05:37:06.807Z,3.83
2022-08-31T05:40:11.035Z,3.20
2022-08-31T05:43:19.862Z,3.20
2022-08-31T05:46:27.513Z,3.30
2022-08-31T05:49:33.352Z,3.30
2022-08-31T05:52:38.608Z,3.62
2022-08-31T05:55:42.948Z,3.60
2022-08-31T05:58:49.521Z,3.50
2022-08-31T06:01:56.704Z,3.40
2022-08-31T06:05:31.014Z,3.35
2022-08-31T06:08:35.827Z,2.87
2022-08-31T06:11:42.250Z,3.33
2022-08-31T06:14:51.243Z,2.75
2022-08-31T06:17:59.521Z,3.22
2022-08-31T06:21:11.034Z,2.60
2022-08-31T06:24:32.618Z,2.67
2022-08-31T06:27:39.789Z,2.58
2022-08-31T06:30:54.907Z,2.83
2022-08-31T06:34:05.350Z,2.42
2022-08-31T06:37:18.982Z,2.45
2022-08-31T06:40:27.239Z,2.37
2022-08-31T06:43:51.757Z,2.05
2022-08-31T06:47:01.423Z,2.37
2022-08-31T06:50:07.750Z,1.70
2022-08-31T06:53:10.873Z,2.10
2022-08-31T06:56:45.612Z,1.87
2022-08-31T06:59:54.947Z,1.80
2022-08-31T07:03:23.104Z,1.92
2022-08-31T07:13:59.083Z,1.60
2022-08-31T07:17:08.101Z,1.67
2022-08-31T07:20:13.738Z,1.65
2022-08-31T07:23:19.044Z,1.62
2022-08-31T07:26:27.824Z,1.77
2022-08-31T07:29:40.365Z,1.80
2022-08-31T07:32:48.975Z,1.87
2022-08-31T07:35:52.876Z,1.87
2022-08-31T07:39:14.700Z,1.83
2022-08-31T07:42:25.973Z,1.60
2022-08-31T07:45:35.812Z,1.80
2022-08-31T08:38:46.451Z,1.67
2022-08-31T08:42:13.580Z,1.77
2022-08-31T08:45:19.641Z,1.75
2022-08-31T08:48:38.168Z,1.70
2022-08-31T08:51:43.227Z,1.73
2022-08-31T08:54:51.216Z,1.40
2022-08-31T08:57:57.556Z,1.73
2022-08-31T09:01:31.247Z,1.70
2022-08-31T09:05:06.097Z,1.65
2022-08-31T09:08:46.402Z,1.77
2022-08-31T09:20:00.452Z,1.60
2022-08-31T09:23:08.592Z,1.90
2022-08-31T09:27:07.544Z,1.30
2022-08-31T09:33:51.498Z,1.65
2022-08-31T09:37:16.789Z,1.50
2022-08-31T09:40:59.462Z,1.60
2022-08-31T09:44:35.373Z,1.50
2022-08-31T09:47:53.674Z,1.40
2022-08-31T09:51:06.293Z,1.70
2022-08-31T09:54:36.945Z,1.35
2022-08-31T10:01:51.561Z,1.48
2022-08-31T10:05:11.957Z,1.67
2022-08-31T10:08:49.899Z,1.67
2022-08-31T10:12:20.262Z,1.30
2022-08-31T10:15:43.971Z,1.62
2022-08-31T10:19:02.189Z,1.65
2022-08-31T10:22:31.225Z,1.60
2022-08-31T10:25:48.820Z,1.60
2022-08-31T10:29:35.691Z,1.42
2022-08-31T10:32:55.675Z,1.58
2022-08-31T10:36:01.603Z,1.58
2022-08-31T10:39:33.809Z,1.42
2022-08-31T10:42:43.084Z,1.67
2022-08-31T10:45:53.278Z,1.45
2022-08-31T10:48:59.681Z,1.50
2022-08-31T10:52:17.349Z,1.52
2022-08-31T10:55:29.833Z,1.60
2022-08-31T10:58:46.538Z,1.40
2022-08-31T11:02:43.972Z,1.70
2022-08-31T11:05:50.945Z,2.28
2022-08-31T11:09:03.459Z,1.50
2022-08-31T11:12:27.774Z,1.43
2022-08-31T11:23:48.053Z,1.70
2022-08-31T11:27:19.128Z,1.37
2022-08-31T11:30:29.193Z,1.67
2022-08-31T11:33:51.017Z,1.65
2022-08-31T11:37:08.801Z,1.60
2022-08-31T11:41:01.742Z,1.60
2022-08-31T11:44:56.198Z,1.50
2022-08-31T11:48:07.719Z,1.73
2022-08-31T11:58:42.573Z,1.90
2022-08-31T12:01:48.330Z,1.62
2022-08-31T12:05:02.674Z,1.48
2022-08-31T12:12:28.222Z,1.70
2022-08-31T12:16:19.357Z,1.60
2022-08-31T12:19:51.924Z,1.90
2022-08-31T12:27:17.603Z,1.73
2022-08-31T13:59:46.173Z,1.87
2022-08-31T14:06:45.853Z,1.80
2022-08-31T15:03:05.367Z,1.65
2022-08-31T15:06:13.921Z,1.40
2022-08-31T15:09:17.759Z,1.50
2022-08-31T15:15:55.904Z,1.85
2022-08-31T15:19:12.234Z,1.60
2022-08-31T15:30:16.788Z,1.50
2022-08-31T15:33:25.518Z,1.70
2022-08-31T16:09:44.880Z,1.92
2022-08-31T16:12:52.735Z,1.80
2022-08-31T16:16:01.076Z,1.83
2022-08-31T17:25:03.179Z,2.05
2022-08-31T17:28:10.997Z,2.15
2022-08-31T17:31:15.330Z,1.70
2022-08-31T17:34:44.139Z,1.87
2022-08-31T17:38:15.616Z,1.95
2022-08-31T17:41:18.872Z,1.83
2022-08-31T17:44:35.868Z,1.95
2022-08-31T17:47:39.668Z,1.60
2022-08-31T17:50:45.387Z,1.77
2022-08-31T17:53:57.385Z,1.92
2022-08-31T17:57:02.832Z,1.85
2022-08-31T18:00:06.880Z,1.60
2022-08-31T18:03:23.970Z,1.92
2022-08-31T18:06:31.344Z,2.10
2022-08-31T18:09:39.526Z,2.58
2022-08-31T18:12:46.619Z,1.95
2022-08-31T18:15:51.509Z,2.00
2022-08-31T18:19:11.217Z,2.10
2022-08-31T18:22:15.285Z,2.12
2022-08-31T18:25:19.163Z,3.78
2022-08-31T18:28:37.682Z,3.58
2022-08-31T18:31:46.256Z,3.45
2022-08-31T18:34:54.078Z,1.80
2022-08-31T18:38:15.792Z,1.60
2022-08-31T18:41:42.817Z,1.75
2022-08-31T18:45:16.895Z,1.60
2022-08-31T18:48:26.292Z,1.60
2022-08-31T18:51:37.006Z,1.45
2022-08-31T18:54:40.490Z,1.62
2022-08-31T18:57:49.053Z,1.60
2022-08-31T19:00:57.753Z,1.45
2022-08-31T19:04:03.606Z,1.40
2022-08-31T19:07:06.901Z,1.25
2022-08-31T19:10:14.244Z,1.20
2022-08-31T19:13:18.338Z,1.48
2022-08-31T19:19:29.312Z,1.35
2022-08-31T19:22:35.962Z,1.50
2022-08-31T19:25:43.790Z,1.58
2022-08-31T19:28:50.926Z,1.40
2022-08-31T19:31:56.252Z,1.60
2022-08-31T19:35:07.783Z,1.70
2022-08-31T19:38:25.255Z,1.35
2022-08-31T19:41:31.408Z,1.40
2022-08-31T19:48:04.808Z,1.23
2022-08-31T19:51:08.563Z,1.40
2022-08-31T19:54:13.342Z,1.50
2022-08-31T19:57:16.817Z,1.50
2022-08-31T20:00:20.884Z,1.27
2022-08-31T20:03:38.559Z,1.20
2022-08-31T20:06:42.193Z,1.50
2022-08-31T20:09:45.316Z,1.45
2022-08-31T20:12:47.838Z,1.30
2022-08-31T20:15:53.463Z,1.15
2022-08-31T20:19:20.827Z,1.48
2022-08-31T20:22:29.833Z,1.40
2022-08-31T20:25:37.785Z,1.50
2022-08-31T20:28:43.408Z,1.20
2022-08-31T20:31:52.760Z,1.12
2022-08-31T20:34:57.024Z,1.12
2022-08-31T20:38:01.860Z,1.40
2022-08-31T20:41:11.564Z,1.60
2022-08-31T20:47:38.096Z,1.30
2022-08-31T20:50:42.848Z,1.20
2022-08-31T20:54:11.110Z,1.55
2022-08-31T20:57:41.156Z,1.20
2022-08-31T21:00:47.935Z,1.25
2022-08-31T21:03:54.242Z,1.37
2022-08-31T21:07:23.332Z,1.27
2022-08-31T21:10:37.396Z,1.33
2022-08-31T21:14:00.512Z,1.50
2022-08-31T21:17:06.348Z,1.00
2022-08-31T21:24:24.815Z,1.33
2022-08-31T21:27:40.908Z,1.02
2022-08-31T21:30:50.559Z,1.37
2022-08-31T21:34:01.028Z,1.20
2022-08-31T21:37:10.203Z,1.45
2022-08-31T21:40:20.760Z,1.30
2022-08-31T21:43:33.816Z,1.30
2022-08-31T21:46:38.465Z,1.35
2022-08-31T21:49:44.012Z,1.10
2022-08-31T21:52:51.701Z,1.30
2022-08-31T21:55:56.197Z,1.15
2022-08-31T21:59:02.111Z,1.10
2022-08-31T22:02:09.498Z,1.17
2022-08-31T22:05:15.751Z,1.05
2022-08-31T22:08:26.415Z,1.10
2022-08-31T22:11:33.065Z,1.10
2022-08-31T22:14:40.042Z,1.27
2022-08-31T22:18:11.467Z,1.30
2022-08-31T22:21:16.929Z,1.30
2022-08-31T22:24:34.360Z,1.12
2022-08-31T22:27:48.236Z,1.20
2022-08-31T22:30:56.552Z,1.25
2022-08-31T22:34:08.434Z,1.23
2022-08-31T22:37:14.541Z,1.20
2022-08-31T22:40:21.297Z,1.02
2022-08-31T22:43:25.894Z,1.20
2022-08-31T22:46:28.726Z,0.88
2022-08-31T22:52:55.434Z,0.98
2022-08-31T22:56:11.364Z,0.90
2022-08-31T22:59:30.572Z,1.30
2022-08-31T23:02:45.578Z,1.08
2022-08-31T23:05:51.763Z,0.90
2022-08-31T23:08:58.027Z,1.30
2022-08-31T23:12:05.301Z,1.00
2022-08-31T23:15:15.157Z,0.82
2022-08-31T23:18:21.232Z,0.90
2022-08-31T23:21:29.517Z,1.10
2022-08-31T23:24:41.576Z,1.00
2022-08-31T23:27:49.903Z,0.95
2022-08-31T23:31:05.251Z,0.82
2022-08-31T23:34:22.655Z,1.30
2022-08-31T23:37:39.653Z,1.05
2022-08-31T23:40:58.874Z,1.20
2022-08-31T23:44:16.214Z,1.20
2022-08-31T23:47:30.805Z,1.02
2022-08-31T23:50:33.746Z,1.37
2022-08-31T23:53:57.161Z,1.50
2022-08-31T23:57:02.787Z,1.20
